Delta Virtual Airport Information Service

Reno Tahoe International Airport

ICAO: KRNO Country: United States
Latitude: 39.4991 Longitude: -119.768
Latest Arrival : DAL6133001 (KSLC-KRNO) Latest Departure : SWA2462 (A) (KRNO-KLAS)


WX CaptureLIVE
Data provided by noaa.gov | Fetched at 04:40:41

METAR : KRNO 300855Z 00000KT 10SM CLR 13/02 A3031 RMK AO2 SLP219 T01330022 51009

TAF : KRNO 300536Z 3006/0106 VRB04KT P6SM SKC FM301000 VRB05KT 6SM FU SCT030 FM302100 06006KT 6SM FU SCT030 FM010200 VRB03KT 6SM FU SCT030


Runway Data for KRNO
Data provided by openaviationdata.com

Runway ID Mag Var Hdg Length Elevation Surface ILS Freq ILS Id ILS Slope
7 15 74° 6093 ft 4414 ft Concrete -- -- --
16L 15 164° 9006 ft 4414 ft Concrete -- -- --
16R 15 164° 11008 ft 4414 ft Concrete 110.9 IRNO 3
25 15 254° 6093 ft 4414 ft Concrete -- -- --
34L 15 344° 11008 ft 4414 ft Concrete -- -- --
34R 15 344° 9006 ft 4414 ft Concrete -- -- --

Reno Tahoe International Airport, United States
Use only for reference purposes



Not for navigational purposes.